Terminal Aerodrome Forecast
Issued by NWS

Current Version | Previous Version | Text Only | Print | Product List | Glossary On
Versions: 1 2 3 4 5 6 7 8 9 10 11 12
000
FTUS45 KPSR 170520
TAFSDL
TAF
KSDL 170520Z 1706/1806 04004KT P6SM SCT250
     FM171700 15005KT P6SM SCT250
     FM172200 23004KT P6SM BKN250
     FM180200 VRB03KT P6SM SCT250=

USA.gov is the U.S. government's official web portal to all federal, state and local government web resources and services.